Time;durP1;ratioP1;P1;durP2;ratioP2;P2;SDS_P1;SDS_P2;PMS_P1;PMS_P2;Temp;Humidity;BMP_temperature;BMP_pressure;BME280_temperature;BME280_humidity;BME280_pressure;Samples;Min_cycle;Max_cycle;Signal;HPM_P1;HPM_P2
2022/12/25 00:04:05;;;;;;;17.98;5.35;;;13.80;92.70;;;;;;10488310;28;20105;-27
2022/12/25 00:09:07;;;;;;;6.10;2.72;;;12.50;99.90;;;;;;10476552;28;20146;-25
2022/12/25 00:14:09;;;;;;;7.47;2.60;;;13.10;97.40;;;;;;10477598;28;20084;-27
2022/12/25 00:19:13;;;;;;;24.27;6.03;;;14.40;90.30;;;;;;10468317;28;20049;-27
2022/12/25 00:24:15;;;;;;;14.93;4.60;;;12.20;99.90;;;;;;10485671;28;20041;-27
2022/12/25 00:29:16;;;;;;;11.73;4.70;;;12.30;99.90;;;;;;10483908;28;20455;-27
2022/12/25 00:34:20;;;;;;;8.82;4.10;;;12.00;99.90;;;;;;10477428;28;20481;-23
2022/12/25 00:39:22;;;;;;;21.90;6.47;;;12.80;99.90;;;;;;10501079;28;20470;-26
2022/12/25 00:44:24;;;;;;;11.27;5.77;;;11.80;99.90;;;;;;10501114;28;20058;-25
2022/12/25 00:49:27;;;;;;;16.10;7.15;;;11.20;99.90;;;;;;10494816;28;20044;-25
2022/12/25 00:54:29;;;;;;;16.63;6.00;;;11.60;99.90;;;;;;10506414;28;20803;-26
2022/12/25 00:59:32;;;;;;;18.20;6.75;;;11.90;99.90;;;;;;10494439;28;20044;-25
2022/12/25 01:04:35;;;;;;;15.00;5.18;;;12.40;99.90;;;;;;10476549;28;20055;-24
2022/12/25 01:14:56;;;;;;;7.60;3.58;;;12.80;99.90;;;;;;10488196;28;20056;-26
2022/12/25 01:20:00;;;;;;;9.70;3.90;;;13.00;98.20;;;;;;10483850;28;20072;-25
2022/12/25 01:25:02;;;;;;;10.00;4.05;;;13.60;97.00;;;;;;10483665;28;20060;-26
2022/12/25 01:30:04;;;;;;;13.70;4.43;;;13.60;95.00;;;;;;10492708;28;20048;-25
2022/12/25 01:35:08;;;;;;;10.85;5.03;;;12.90;99.80;;;;;;10484180;28;20140;-27
2022/12/25 01:40:11;;;;;;;6.78;3.72;;;12.60;99.60;;;;;;10472703;28;20072;-25
2022/12/25 01:45:33;;;;;;;8.13;2.70;;;13.20;99.90;;;;;;10476264;28;20067;-23
2022/12/25 01:50:40;;;;;;;7.50;3.13;;;13.00;98.00;;;;;;10494752;28;20054;-25
2022/12/25 01:55:44;;;;;;;4.53;2.50;;;14.70;87.40;;;;;;10474270;28;20533;-26
2022/12/25 02:00:47;;;;;;;4.78;1.83;;;15.30;79.70;;;;;;10482566;28;20098;-26
2022/12/25 02:05:51;;;;;;;3.60;1.70;;;15.60;77.10;;;;;;10470830;28;20071;-27
2022/12/25 02:10:53;;;;;;;2.72;1.70;;;15.70;75.70;;;;;;10501744;28;20127;-25
2022/12/25 02:16:04;;;;;;;7.37;3.27;;;15.70;76.10;;;;;;10485341;28;20109;-23
2022/12/25 02:21:25;;;;;;;3.97;1.63;;;15.60;77.10;;;;;;10470473;28;20045;-28
2022/12/25 02:26:50;;;;;;;3.17;1.70;;;15.60;79.30;;;;;;10490212;28;20109;-25
2022/12/25 02:31:59;;;;;;;12.38;4.35;;;15.60;77.20;;;;;;10468630;28;20086;-24
2022/12/25 02:37:06;;;;;;;2.80;1.55;;;15.50;76.90;;;;;;10482616;28;20130;-25
2022/12/25 02:42:13;;;;;;;8.32;4.07;;;15.40;78.20;;;;;;10500307;28;20075;-25
2022/12/25 03:11:29;;;;;;;3.70;1.95;;;15.70;74.80;;;;;;10496042;28;20052;-24
2022/12/25 03:36:11;;;;;;;9.75;4.00;;;15.40;78.10;;;;;;10481653;28;20052;-25
2022/12/25 04:40:13;;;;;;;3.65;1.90;;;15.60;76.10;;;;;;10481037;28;20048;-26
2022/12/25 04:45:15;;;;;;;5.03;1.83;;;15.60;76.50;;;;;;10490222;28;20459;-26
2022/12/25 04:50:17;;;;;;;2.27;1.50;;;15.80;74.70;;;;;;10477201;28;20052;-26
2022/12/25 04:55:20;;;;;;;3.70;1.63;;;15.80;74.50;;;;;;10477416;28;20072;-27
2022/12/25 05:00:22;;;;;;;3.67;1.50;;;16.00;72.50;;;;;;10488442;28;20052;-26
2022/12/25 05:05:24;;;;;;;2.50;1.27;;;16.10;72.00;;;;;;10501320;28;20044;-26
2022/12/25 05:10:28;;;;;;;4.80;1.77;;;16.00;72.50;;;;;;10488451;28;20076;-26
2022/12/25 05:15:29;;;;;;;2.70;1.50;;;15.50;76.80;;;;;;10492202;28;20056;-26
2022/12/25 05:20:31;;;;;;;7.90;3.70;;;15.60;75.30;;;;;;10497105;28;20123;-25
2022/12/25 05:25:39;;;;;;;8.13;3.27;;;15.40;76.80;;;;;;10487193;28;20060;-25
2022/12/25 05:30:41;;;;;;;2.97;1.30;;;15.40;78.00;;;;;;10500707;28;20053;-25
2022/12/25 05:35:43;;;;;;;7.07;2.73;;;15.70;75.50;;;;;;10504891;28;20079;-25
2022/12/25 05:40:46;;;;;;;2.93;1.67;;;15.20;79.00;;;;;;10472549;28;20060;-25
2022/12/25 05:45:48;;;;;;;3.40;2.03;;;15.20;79.60;;;;;;10481375;28;20135;-25
2022/12/25 05:50:50;;;;;;;4.47;1.92;;;15.40;78.10;;;;;;10505874;28;20135;-25
2022/12/25 05:55:53;;;;;;;2.90;1.50;;;15.30;81.60;;;;;;10497553;28;20147;-25
2022/12/25 06:00:55;;;;;;;5.40;2.53;;;15.60;75.80;;;;;;10494278;28;20544;-25
2022/12/25 06:05:57;;;;;;;1.77;1.50;;;15.60;75.80;;;;;;10491768;28;20220;-28
2022/12/25 06:11:03;;;;;;;3.17;1.90;;;15.60;75.30;;;;;;10504216;28;20485;-25
2022/12/25 06:16:06;;;;;;;5.30;2.35;;;15.70;75.40;;;;;;10486404;28;20138;-25
2022/12/25 06:21:10;;;;;;;1.90;1.27;;;15.10;80.40;;;;;;10496598;28;20082;-25
2022/12/25 06:26:15;;;;;;;4.78;2.40;;;15.80;74.50;;;;;;10489305;28;20072;-26
2022/12/25 06:31:21;;;;;;;2.92;1.27;;;15.50;75.90;;;;;;10489471;28;20071;-24
2022/12/25 06:36:24;;;;;;;2.85;1.85;;;15.70;74.70;;;;;;10498800;28;20153;-25
2022/12/25 06:41:30;;;;;;;5.55;1.60;;;15.30;77.40;;;;;;10496713;28;20123;-26
2022/12/25 06:46:32;;;;;;;3.75;1.77;;;15.80;74.00;;;;;;10481484;28;20087;-24
2022/12/25 06:51:34;;;;;;;4.30;2.17;;;15.20;78.30;;;;;;10500533;28;20130;-24
2022/12/25 06:56:37;;;;;;;2.23;1.90;;;15.50;75.90;;;;;;10495427;28;20522;-25
2022/12/25 07:15:30;;;;;;;1.40;1.30;;;15.40;77.20;;;;;;10537056;27;20585;-25
2022/12/25 07:20:32;;;;;;;5.20;1.70;;;15.50;75.70;;;;;;10514954;28;20494;-25
2022/12/25 07:25:33;;;;;;;10.25;5.55;;;15.20;78.40;;;;;;10520629;28;20048;-24
2022/12/25 07:30:37;;;;;;;5.00;3.50;;;15.20;84.20;;;;;;10511807;28;20465;-25
2022/12/25 07:35:39;;;;;;;2.28;1.77;;;14.10;89.40;;;;;;10520946;28;20048;-25
2022/12/25 07:40:44;;;;;;;1.95;1.33;;;14.90;82.20;;;;;;10518117;28;20562;-25
2022/12/25 07:45:48;;;;;;;2.35;1.90;;;15.70;74.40;;;;;;10545496;28;20100;-24
2022/12/25 07:50:55;;;;;;;2.83;1.58;;;15.70;73.60;;;;;;10534396;28;20384;-25
2022/12/25 07:55:59;;;;;;;1.90;1.27;;;15.60;74.20;;;;;;10536358;28;20099;-25
2022/12/25 08:01:05;;;;;;;3.40;1.75;;;15.80;73.20;;;;;;10518679;28;20166;-25
2022/12/25 08:06:09;;;;;;;3.42;1.63;;;15.90;72.00;;;;;;10525367;28;20135;-25
2022/12/25 08:11:11;;;;;;;2.75;1.63;;;16.00;71.40;;;;;;10505825;28;20141;-25
2022/12/25 08:16:14;;;;;;;3.50;2.93;;;16.00;71.20;;;;;;10503356;28;20114;-23
2022/12/25 08:21:16;;;;;;;1.77;1.17;;;16.10;70.90;;;;;;10532692;28;20129;-26
2022/12/25 08:26:20;;;;;;;3.55;1.50;;;16.10;71.00;;;;;;10511025;28;20075;-24
2022/12/25 08:31:25;;;;;;;1.83;1.65;;;16.10;70.70;;;;;;10496879;28;20443;-26
2022/12/25 08:36:27;;;;;;;2.40;1.50;;;16.10;70.80;;;;;;10498668;28;20119;-26
2022/12/25 08:41:29;;;;;;;2.00;1.47;;;16.10;70.70;;;;;;10485258;28;20139;-25
2022/12/25 08:46:33;;;;;;;2.92;1.70;;;16.10;70.60;;;;;;10497289;28;20076;-26
2022/12/25 08:51:36;;;;;;;3.53;1.88;;;16.10;70.50;;;;;;10491495;28;20057;-25
2022/12/25 08:56:37;;;;;;;2.17;1.90;;;16.00;71.00;;;;;;10497772;28;20048;-26
2022/12/25 09:01:40;;;;;;;1.90;1.23;;;16.00;71.20;;;;;;10491684;28;20103;-27
2022/12/25 09:06:42;;;;;;;6.60;1.52;;;16.00;70.90;;;;;;10487490;28;20657;-25
2022/12/25 09:11:44;;;;;;;2.70;1.60;;;15.90;71.90;;;;;;10502549;28;20107;-25
2022/12/25 09:16:49;;;;;;;1.93;1.40;;;16.00;71.10;;;;;;10477798;28;20144;-25
2022/12/25 09:21:51;;;;;;;2.38;1.92;;;16.00;71.70;;;;;;10490475;28;20569;-26
2022/12/25 09:26:53;;;;;;;1.90;1.43;;;16.00;71.60;;;;;;10498877;28;20108;-28
2022/12/25 09:31:56;;;;;;;3.63;1.97;;;16.00;71.60;;;;;;10480953;28;20412;-25
2022/12/25 09:36:58;;;;;;;3.42;1.65;;;16.00;71.70;;;;;;10500673;28;20044;-26
2022/12/25 09:42:04;;;;;;;1.80;1.60;;;16.00;71.60;;;;;;10496841;28;20040;-26
2022/12/25 09:47:13;;;;;;;2.45;1.67;;;16.00;71.20;;;;;;10494597;28;20106;-26
2022/12/25 09:52:18;;;;;;;3.25;1.85;;;16.00;70.90;;;;;;10508824;28;20149;-27
2022/12/25 09:57:20;;;;;;;2.08;1.88;;;16.00;71.10;;;;;;10508032;28;20068;-25
2022/12/25 10:02:36;;;;;;;4.78;2.38;;;15.90;71.70;;;;;;10473956;28;20049;-25
2022/12/25 10:07:45;;;;;;;2.67;1.70;;;16.10;70.80;;;;;;10471527;28;20043;-26
2022/12/25 10:12:54;;;;;;;3.40;2.65;;;16.00;70.80;;;;;;10467888;28;20079;-26
2022/12/25 10:18:24;;;;;;;3.22;2.13;;;16.00;70.90;;;;;;10499741;28;20067;-24
2022/12/25 10:23:30;;;;;;;3.25;1.55;;;16.00;71.00;;;;;;10504898;28;20048;-26
2022/12/25 10:28:37;;;;;;;2.97;1.65;;;16.10;70.60;;;;;;10501255;28;20574;-27
2022/12/25 10:33:40;;;;;;;2.33;1.85;;;16.00;70.90;;;;;;10489053;28;20082;-25
2022/12/25 10:38:42;;;;;;;3.03;2.20;;;16.00;71.00;;;;;;10519007;28;20104;-27
2022/12/25 10:43:50;;;;;;;7.10;2.17;;;16.00;70.70;;;;;;10514817;28;20110;-26
2022/12/25 10:48:56;;;;;;;2.00;1.80;;;16.00;70.30;;;;;;10492337;28;20477;-25
2022/12/25 10:53:58;;;;;;;5.53;1.85;;;16.10;70.20;;;;;;10486900;28;20101;-25
2022/12/25 10:59:07;;;;;;;2.40;1.87;;;16.10;70.20;;;;;;10496575;28;20462;-24
2022/12/25 11:04:20;;;;;;;3.08;2.08;;;16.10;70.00;;;;;;10472963;28;20491;-26
2022/12/25 11:09:22;;;;;;;2.33;1.80;;;16.10;70.00;;;;;;10463835;28;20044;-26
2022/12/25 11:14:26;;;;;;;2.75;1.90;;;16.10;69.70;;;;;;10462396;28;20109;-25
2022/12/25 11:19:32;;;;;;;4.72;1.95;;;16.10;69.70;;;;;;10464967;28;20060;-25
2022/12/25 11:24:33;;;;;;;2.40;1.58;;;16.20;69.70;;;;;;10472703;28;20144;-25
2022/12/25 11:29:41;;;;;;;2.10;1.27;;;16.20;69.60;;;;;;10482596;28;20152;-27
2022/12/25 11:34:46;;;;;;;4.05;1.67;;;16.20;69.70;;;;;;10469099;28;20053;-24
2022/12/25 11:39:48;;;;;;;4.28;1.20;;;16.10;69.60;;;;;;10493010;28;20413;-25
2022/12/25 11:44:55;;;;;;;3.13;1.63;;;16.10;69.70;;;;;;10476953;28;20041;-25
2022/12/25 11:50:02;;;;;;;2.50;1.58;;;16.20;69.60;;;;;;10485647;28;20129;-26
2022/12/25 11:55:14;;;;;;;2.20;1.52;;;16.10;69.60;;;;;;10489949;28;20055;-25
2022/12/25 12:00:17;;;;;;;5.37;2.50;;;16.10;69.70;;;;;;10484436;28;20498;-26
2022/12/25 12:05:22;;;;;;;;;;;16.10;69.60;;;;;;10486317;28;20048;-26
2022/12/25 12:10:49;;;;;;;4.85;1.50;;;16.20;69.50;;;;;;10498519;28;19924;-25
2022/12/25 12:15:51;;;;;;;4.57;1.77;;;16.20;69.60;;;;;;10498668;28;20129;-25
2022/12/25 12:21:03;;;;;;;2.30;1.20;;;16.20;69.60;;;;;;10502365;28;20064;-26
2022/12/25 12:26:05;;;;;;;3.50;1.47;;;16.20;69.50;;;;;;10491512;28;20052;-27
2022/12/25 12:31:08;;;;;;;2.72;1.50;;;16.20;69.60;;;;;;10503648;28;20053;-26
2022/12/25 12:36:14;;;;;;;4.25;2.03;;;16.20;69.60;;;;;;10494700;28;20105;-26
2022/12/25 12:41:17;;;;;;;4.75;2.75;;;16.10;69.70;;;;;;10476844;28;20075;-25
2022/12/25 12:46:20;;;;;;;;;;;16.10;69.70;;;;;;10481221;28;20047;-27
2022/12/25 12:51:32;;;;;;;5.13;2.42;;;16.20;69.70;;;;;;10484591;28;19920;-25
2022/12/25 12:56:34;;;;;;;4.20;2.08;;;16.10;69.50;;;;;;10486563;28;20313;-24
2022/12/25 13:01:45;;;;;;;4.57;2.47;;;16.10;69.50;;;;;;10484970;28;20041;-25
2022/12/25 13:06:55;;;;;;;7.60;2.47;;;16.10;69.50;;;;;;10478088;28;20083;-26
2022/12/25 13:11:58;;;;;;;3.60;2.20;;;16.10;69.60;;;;;;10485444;28;20060;-24
2022/12/25 13:17:00;;;;;;;4.75;2.22;;;16.10;69.60;;;;;;10493192;28;20053;-26
2022/12/25 13:22:06;;;;;;;3.00;1.80;;;16.10;69.50;;;;;;10499699;28;20053;-26
2022/12/25 13:27:22;;;;;;;5.15;2.08;;;16.10;69.40;;;;;;10497862;28;20487;-25
2022/12/25 13:32:26;;;;;;;2.30;1.60;;;16.20;69.50;;;;;;10465956;28;20127;-24
2022/12/25 13:37:31;;;;;;;6.25;2.90;;;16.10;69.40;;;;;;10489717;28;20079;-23
2022/12/25 13:42:35;;;;;;;8.13;3.13;;;16.10;69.80;;;;;;10498101;28;20068;-25
2022/12/25 13:47:39;;;;;;;4.72;2.63;;;16.10;69.50;;;;;;10497391;28;20056;-26
2022/12/25 13:52:42;;;;;;;2.53;1.50;;;16.10;69.60;;;;;;10480446;28;20083;-26
2022/12/25 13:57:49;;;;;;;2.78;1.27;;;16.20;69.50;;;;;;10486929;28;20106;-26
2022/12/25 14:02:51;;;;;;;4.97;1.35;;;16.10;69.70;;;;;;10473547;28;20044;-26
2022/12/25 14:07:56;;;;;;;3.00;1.20;;;16.10;69.70;;;;;;10492822;28;20452;-24
2022/12/25 14:13:01;;;;;;;2.95;1.20;;;16.10;69.80;;;;;;10487485;28;20053;-25
2022/12/25 14:18:04;;;;;;;2.28;1.35;;;16.10;69.80;;;;;;10466625;28;20133;-25
2022/12/25 14:23:14;;;;;;;2.75;1.70;;;16.10;70.00;;;;;;10507759;28;20113;-25
2022/12/25 14:28:19;;;;;;;2.72;1.20;;;16.10;69.80;;;;;;10485961;28;20072;-25
2022/12/25 14:33:23;;;;;;;2.85;1.30;;;16.10;70.00;;;;;;10504997;28;20660;-26
2022/12/25 14:38:29;;;;;;;4.10;1.17;;;16.10;69.80;;;;;;10495323;28;20044;-24
2022/12/25 14:43:33;;;;;;;3.08;1.15;;;16.10;69.80;;;;;;10484849;28;20067;-22
2022/12/25 14:48:35;;;;;;;5.72;1.15;;;16.10;70.00;;;;;;10504507;28;20048;-25
2022/12/25 14:53:45;;;;;;;3.17;1.40;;;16.10;69.90;;;;;;10494746;28;20142;-23
2022/12/25 14:58:50;;;;;;;1.50;1.17;;;16.10;69.80;;;;;;10495138;28;20068;-27
2022/12/25 15:03:52;;;;;;;2.42;1.20;;;16.10;69.80;;;;;;10507280;28;20536;-26
2022/12/25 15:08:59;;;;;;;4.13;1.40;;;16.10;69.80;;;;;;10493560;28;20076;-25
2022/12/25 15:14:01;;;;;;;1.70;1.45;;;16.10;69.90;;;;;;10484365;28;20499;-25
2022/12/25 15:19:06;;;;;;;3.47;1.57;;;16.10;70.10;;;;;;10476852;28;20072;-25
2022/12/25 15:24:12;;;;;;;2.00;1.42;;;16.10;70.00;;;;;;10500254;28;20041;-25
2022/12/25 15:29:14;;;;;;;3.22;1.40;;;16.10;69.70;;;;;;10491708;28;20059;-26
2022/12/25 15:34:19;;;;;;;3.50;2.40;;;16.10;70.10;;;;;;10518750;28;20048;-26
2022/12/25 15:39:22;;;;;;;3.33;1.52;;;16.10;70.00;;;;;;10512662;28;20126;-25
2022/12/25 15:44:25;;;;;;;3.40;1.52;;;16.10;70.00;;;;;;10491023;28;20131;-25
2022/12/25 15:49:26;;;;;;;2.72;1.48;;;16.10;69.70;;;;;;10482695;28;20051;-25
2022/12/25 15:54:30;;;;;;;2.17;1.50;;;16.00;70.00;;;;;;10488063;28;20052;-25
2022/12/25 15:59:33;;;;;;;1.73;1.40;;;16.10;69.90;;;;;;10487299;28;20461;-24
2022/12/25 16:04:35;;;;;;;1.75;1.45;;;16.10;69.80;;;;;;10487504;28;20071;-28
2022/12/25 16:09:38;;;;;;;2.23;1.77;;;16.10;69.70;;;;;;10499593;28;20044;-27
2022/12/25 16:14:40;;;;;;;4.38;1.23;;;16.10;70.00;;;;;;10506141;28;20529;-30
2022/12/25 16:19:43;;;;;;;3.88;1.48;;;16.10;70.00;;;;;;10492630;28;20568;-27
2022/12/25 16:24:46;;;;;;;3.08;1.67;;;16.00;70.10;;;;;;10485235;28;20051;-26
2022/12/25 16:29:49;;;;;;;2.65;1.70;;;16.00;70.30;;;;;;10487849;28;20094;-25
2022/12/25 16:34:51;;;;;;;2.33;1.45;;;16.00;70.70;;;;;;10481318;28;20083;-24
2022/12/25 16:39:54;;;;;;;3.73;1.97;;;16.00;70.60;;;;;;10495444;28;20130;-25
2022/12/25 16:44:56;;;;;;;2.58;1.75;;;15.90;70.80;;;;;;10472165;28;20075;-25
2022/12/25 16:49:58;;;;;;;7.33;4.23;;;15.40;74.50;;;;;;10485266;28;20048;-24
2022/12/25 16:55:02;;;;;;;3.80;2.43;;;15.60;73.90;;;;;;10488946;28;20143;-24
2022/12/25 17:00:05;;;;;;;9.75;5.40;;;15.50;74.10;;;;;;10496674;28;20045;-24
2022/12/25 17:05:07;;;;;;;6.72;5.07;;;15.40;77.10;;;;;;10498128;28;20079;-26
2022/12/25 17:10:12;;;;;;;4.72;3.00;;;14.30;88.60;;;;;;10490509;28;20048;-27
2022/12/25 17:15:14;;;;;;;5.32;3.67;;;14.50;84.00;;;;;;10486154;28;20053;-24
2022/12/25 17:20:16;;;;;;;5.00;3.53;;;15.40;76.50;;;;;;10493230;28;20045;-25
2022/12/25 17:25:19;;;;;;;4.57;3.20;;;15.50;75.40;;;;;;10489144;28;20098;-25
2022/12/25 17:30:21;;;;;;;5.00;3.38;;;15.50;75.20;;;;;;10476130;28;20047;-26
2022/12/25 17:35:23;;;;;;;5.90;3.00;;;15.40;75.20;;;;;;10488130;28;20105;-24
2022/12/25 17:40:26;;;;;;;4.53;2.80;;;15.30;77.10;;;;;;10502231;28;20071;-25
2022/12/25 17:45:28;;;;;;;4.07;2.28;;;15.80;72.70;;;;;;10499809;28;20075;-24
2022/12/25 17:50:30;;;;;;;4.23;2.60;;;15.80;72.40;;;;;;10491393;28;20068;-25
2022/12/25 17:55:35;;;;;;;3.13;2.63;;;15.80;72.40;;;;;;10493605;28;20108;-25
2022/12/25 18:00:37;;;;;;;4.70;2.50;;;15.80;71.90;;;;;;10482931;28;20106;-25
2022/12/25 18:05:39;;;;;;;2.83;1.98;;;15.80;72.00;;;;;;10489625;28;20053;-25
2022/12/25 18:10:43;;;;;;;3.20;2.03;;;15.80;71.70;;;;;;10474156;28;20037;-24
2022/12/25 18:15:45;;;;;;;3.80;2.70;;;15.90;71.30;;;;;;10496384;28;20150;-25
2022/12/25 18:20:47;;;;;;;10.53;4.90;;;15.90;71.30;;;;;;10493423;28;20139;-26
2022/12/25 18:25:53;;;;;;;16.47;8.87;;;15.80;72.20;;;;;;10483974;28;20596;-24
2022/12/25 18:30:55;;;;;;;4.70;3.40;;;15.30;76.60;;;;;;10517118;28;20502;-23
2022/12/25 18:35:58;;;;;;;5.53;4.30;;;15.60;73.40;;;;;;10505527;28;20048;-25
2022/12/25 18:41:04;;;;;;;5.03;3.47;;;15.80;71.80;;;;;;10503469;28;20056;-23
2022/12/25 18:46:07;;;;;;;4.75;3.50;;;15.90;70.80;;;;;;10512847;28;20113;-28
2022/12/25 18:51:12;;;;;;;5.32;4.07;;;15.90;70.90;;;;;;10479019;28;20045;-24
2022/12/25 18:56:17;;;;;;;4.32;3.67;;;15.90;70.70;;;;;;10500978;28;20059;-25
2022/12/25 19:01:21;;;;;;;6.38;3.88;;;16.00;70.60;;;;;;10481290;28;20048;-24
2022/12/25 19:06:25;;;;;;;5.15;3.80;;;15.90;70.70;;;;;;10502041;28;20067;-24
2022/12/25 19:11:28;;;;;;;5.50;3.97;;;15.90;70.80;;;;;;10502191;28;20136;-28
2022/12/25 19:16:30;;;;;;;6.50;4.43;;;15.80;71.20;;;;;;10503210;28;20398;-25
2022/12/25 19:21:32;;;;;;;5.93;4.60;;;15.50;73.40;;;;;;10495130;28;20072;-22
2022/12/25 19:26:36;;;;;;;22.97;9.60;;;15.50;73.60;;;;;;10481532;28;20048;-25
2022/12/25 19:31:39;;;;;;;23.00;12.55;;;14.50;85.90;;;;;;10475891;28;20044;-25
2022/12/25 19:36:41;;;;;;;19.33;10.25;;;13.90;92.10;;;;;;10493681;28;20548;-24
2022/12/25 19:41:44;;;;;;;8.70;5.72;;;13.20;95.20;;;;;;10481986;28;20048;-24
2022/12/25 19:46:46;;;;;;;11.18;7.30;;;14.50;85.30;;;;;;10491888;28;20083;-26
2022/12/25 19:51:48;;;;;;;8.83;6.27;;;15.10;79.00;;;;;;10518169;28;20047;-24
2022/12/25 19:56:52;;;;;;;7.97;5.23;;;14.90;81.60;;;;;;10503511;28;20398;-27
2022/12/25 20:01:54;;;;;;;6.45;4.38;;;15.30;77.60;;;;;;10500409;28;20079;-25
2022/12/25 20:06:55;;;;;;;5.50;3.57;;;15.40;75.10;;;;;;10489607;28;20044;-25
2022/12/25 20:11:59;;;;;;;4.20;3.15;;;15.40;75.80;;;;;;10497718;28;20076;-26
2022/12/25 20:17:00;;;;;;;7.82;3.88;;;15.20;77.10;;;;;;10489092;28;20145;-25
2022/12/25 20:22:02;;;;;;;5.13;3.55;;;14.80;80.40;;;;;;10502924;28;20123;-25
2022/12/25 20:27:06;;;;;;;4.93;3.57;;;15.40;75.90;;;;;;10512792;28;20049;-26
2022/12/25 20:32:08;;;;;;;3.88;3.03;;;15.60;74.10;;;;;;10496447;28;20041;-25
2022/12/25 20:37:10;;;;;;;4.20;3.00;;;15.50;73.80;;;;;;10515947;28;20132;-26
2022/12/25 20:42:13;;;;;;;4.57;2.90;;;15.00;78.80;;;;;;10493008;28;20048;-25
2022/12/25 20:47:15;;;;;;;6.30;3.85;;;15.40;75.30;;;;;;10488534;28;20053;-26
2022/12/25 20:52:17;;;;;;;3.17;2.77;;;15.50;73.70;;;;;;10497005;28;20049;-25
2022/12/25 20:57:20;;;;;;;4.18;3.33;;;15.40;75.70;;;;;;10470062;28;20083;-25
2022/12/25 21:02:22;;;;;;;9.27;5.45;;;15.00;79.20;;;;;;10463613;28;20097;-25
2022/12/25 21:07:24;;;;;;;8.23;4.75;;;14.40;87.90;;;;;;10495911;28;20068;-25
2022/12/25 21:12:27;;;;;;;8.20;5.53;;;14.60;85.40;;;;;;10502675;28;20076;-24
2022/12/25 21:17:29;;;;;;;7.90;3.60;;;14.20;89.10;;;;;;10480999;28;20080;-25
2022/12/25 21:22:32;;;;;;;4.25;2.67;;;14.20;87.80;;;;;;10503637;28;20493;-25
2022/12/25 21:27:35;;;;;;;3.72;2.83;;;14.30;85.50;;;;;;10501626;28;20044;-25
2022/12/25 21:37:56;;;;;;;5.47;3.92;;;13.90;90.60;;;;;;10494870;28;20143;-25
2022/12/25 21:43:00;;;;;;;5.73;2.97;;;13.70;91.60;;;;;;10501433;28;20528;-25
2022/12/25 21:48:02;;;;;;;4.38;3.10;;;13.40;93.40;;;;;;10502940;28;20055;-26
2022/12/25 21:53:04;;;;;;;6.05;3.83;;;12.90;95.80;;;;;;10514500;28;20523;-25
2022/12/25 21:58:08;;;;;;;6.55;3.90;;;13.10;94.70;;;;;;10500087;28;20066;-26
2022/12/25 22:03:10;;;;;;;7.43;4.55;;;13.00;96.50;;;;;;10499848;28;20497;-27
2022/12/25 22:08:11;;;;;;;6.95;4.53;;;13.00;97.40;;;;;;10495817;28;20623;-25
2022/12/25 22:23:54;;;;;;;12.95;7.65;;;12.50;99.90;;;;;;10494859;28;20053;-30
2022/12/25 22:28:57;;;;;;;14.88;8.93;;;11.60;99.90;;;;;;10504226;28;20543;-25
2022/12/25 22:33:59;;;;;;;13.00;7.25;;;12.10;99.90;;;;;;10489189;28;20428;-27
2022/12/25 22:39:01;;;;;;;15.10;7.50;;;11.50;99.90;;;;;;10503888;28;20540;-25
2022/12/25 22:44:06;;;;;;;16.10;10.30;;;12.30;99.90;;;;;;10491937;28;20928;-26
2022/12/25 22:49:08;;;;;;;9.00;5.80;;;11.00;99.90;;;;;;10489785;28;20068;-25
2022/12/25 22:54:11;;;;;;;17.35;9.15;;;11.70;99.90;;;;;;10487164;28;20137;-25
2022/12/25 22:59:16;;;;;;;12.88;8.13;;;11.40;99.90;;;;;;10497359;28;20086;-22
2022/12/25 23:04:18;;;;;;;9.10;5.85;;;11.60;99.90;;;;;;10488240;28;20163;-24
2022/12/25 23:09:26;;;;;;;12.88;6.82;;;11.50;99.90;;;;;;10498700;28;20063;-25
2022/12/25 23:14:38;;;;;;;8.27;5.38;;;11.90;99.90;;;;;;10493823;28;20105;-26
2022/12/25 23:30:20;;;;;;;9.38;5.50;;;11.70;99.90;;;;;;10485554;28;20048;-24
2022/12/25 23:35:22;;;;;;;15.50;6.80;;;11.50;99.90;;;;;;10489373;28;20100;-25
2022/12/25 23:40:24;;;;;;;7.50;4.78;;;10.80;99.90;;;;;;10483419;28;20049;-26
2022/12/25 23:45:27;;;;;;;16.80;8.80;;;11.60;99.90;;;;;;10488322;28;20075;-25
2022/12/25 23:50:29;;;;;;;20.10;10.45;;;10.80;99.90;;;;;;10496042;28;20059;-27
2022/12/25 23:55:31;;;;;;;16.55;8.00;;;10.30;99.90;;;;;;10503131;28;20077;-25
